Logan, UT (84341)

2:41 PM MST on December 18, 2014 (GMT -0700)
MesoWest Greenville Farm UT US | Change Station
CLOSE
Current Station
Personal Weather Station
Location: Logan, UT
Elevation: 4635 ft
Nearby Weather Stations

Elev 4635 ft 41.77 °N, 111.81 °W | Updated 41 minutes ago

Partly Cloudy
Partly Cloudy
41 °F
Feels Like 41 °F
N
3
Wind Variable Wind from West
Gusts 6.0 mph

Today
High -- | Low -- °F
--% Chance of Precip.
Yesterday
High -- | Low -- °F
Precip. -- in
7:49 AM 4:58 PM
Waning Crescent, 12% visible
Pressure 30.14 in
Visibility 10.0 miles
Clouds Few 4700 ft
Windchill 41 °F
Dew Point 27 °F
Humidity 58%
Rainfall -999.00 in
Snow Depth Not available.
UV 2 out of 12
Pollen .10 out of 12
Air Quality Not available.
Flu Activity Not available.
METAR KLGU 182051Z AUTO 00000KT 10SM FEW047 06/M02 A3012 RMK AO2 SLP207 T00561022 58011

More Conditions Fewer Conditions

Pressure 30.14 in
Visibility 10.0 miles
Clouds Few 4700 ft
Windchill 41 °F
Dew Point 27 °F
Humidity 58%
Rainfall -999.00 in
Snow Depth Not available.
UV 2 out of 12
Pollen .10 out of 12
Air Quality Not available.
Flu Activity Not available.
METAR KLGU 182051Z AUTO 00000KT 10SM FEW047 06/M02 A3012 RMK AO2 SLP207 T00561022 58011

More Conditions Fewer Conditions

10-Day Weather Forecast

Almanac

Astronomy

Dec. 18, 2014 Rise Set
Actual Time
Civil Twilight
Nautical Twilight
Astronomical Twilight
Moon
Length of Visible Light
Length of Day
Tomorrow will be .
, % of the Moon is Illuminated

Today's Extremes

State Highs State Lows

Community

WunderPhotos

Upload Photos

1,778,999 photos uploaded!

WunderBlogs® & News

Nearby

Air Quality

  Air Quality AQ Index Pollutant
Not available.

Snow Depth

Station Depth Elevation

Earthquake Activity

City Distance Mag. Time & Date
Minimum magnitude displayed is 2.5.

Coastal Water Temperatures

Place Temperature

Nearby Weather Stations